| time (UTC) | temp C | wind direction | speed KPH | gust KPH | rain 1hr cm | rain 24hr cm | rain mn cm | humidity % | barometer mb |
| 20260505114408 | 2 | 353 | 8.0 | 14.5 | 0.00 | 1.37 | 1.37 | 97 | 1013.3 |
| 20260505113904 | 2 | 18 | 1.6 | 3.2 | 0.00 | 1.37 | 1.37 | 96 | 1013.5 |
| 20260505113401 | 3 | 329 | 8.0 | 11.3 | 0.13 | 1.37 | 1.37 | 96 | 1013.4 |
| 20260505112857 | 2 | 19 | 1.6 | 3.2 | 0.13 | 1.37 | 1.37 | 96 | 1013.4 |
| 20260505112355 | 2 | 346 | 14.5 | 19.3 | 0.00 | 1.35 | 1.35 | 96 | 1013.4 |
| 20260505111850 | 2 | 343 | 0.0 | 0.0 | 0.00 | 1.35 | 1.35 | 96 | 1013.2 |
| 20260505111346 | 2 | 19 | 4.8 | 8.0 | 0.00 | 1.35 | 1.35 | 96 | 1013.0 |
| 20260505110842 | 2 | 21 | 4.8 | 8.0 | 0.18 | 1.35 | 1.35 | 96 | 1013.0 |
| 20260505110340 | 2 | 330 | 6.4 | 8.0 | 0.30 | 1.35 | 1.35 | 96 | 1013.0 |
| 20260505101814 | 3 | 348 | 19.3 | 24.1 | 0.13 | 1.22 | 1.22 | 95 | 1012.8 |
| 20260505101311 | 3 | 335 | 14.5 | 22.5 | 0.18 | 1.19 | 1.19 | 95 | 1012.7 |
| 20260505100807 | 4 | 321 | 4.8 | 14.5 | 0.18 | 1.19 | 1.19 | 94 | 1012.7 |
| 20260505100303 | 4 | 322 | 16.1 | 24.1 | 0.00 | 1.17 | 1.17 | 94 | 1012.6 |
| 20260505095759 | 5 | 340 | 11.3 | 16.1 | 0.18 | 1.17 | 1.17 | 94 | 1012.5 |
| 20260505095257 | 5 | 12 | 24.1 | 33.8 | 0.18 | 1.17 | 1.17 | 94 | 1012.2 |
| 20260505094752 | 5 | 325 | 20.9 | 27.4 | 0.13 | 1.14 | 1.14 | 94 | 1012.1 |
| 20260505094249 | 5 | 337 | 8.0 | 11.3 | 0.13 | 1.14 | 1.14 | 93 | 1012.2 |
| 20260505093739 | 5 | 347 | 6.4 | 8.0 | 0.30 | 1.14 | 1.14 | 93 | 1012.2 |
| 20260505093237 | 5 | 313 | 11.3 | 24.1 | 0.18 | 1.12 | 1.12 | 93 | 1012.0 |
| 20260505092734 | 6 | 325 | 8.0 | 16.1 | 0.00 | 1.09 | 1.09 | 92 | 1012.2 |
| 20260505092233 | 6 | 321 | 12.9 | 14.5 | 0.13 | 1.09 | 1.09 | 92 | 1012.6 |
| 20260505091729 | 5 | 322 | 16.1 | 22.5 | 0.13 | 1.09 | 1.09 | 93 | 1012.2 |
| 20260505091228 | 5 | 311 | 11.3 | 14.5 | 0.00 | 1.07 | 1.07 | 93 | 1012.0 |
| 20260505090725 | 6 | 332 | 4.8 | 4.8 | 0.00 | 1.07 | 1.07 | 93 | 1012.2 |
| 20260505090223 | 6 | 338 | 0.0 | 3.2 | 0.00 | 1.07 | 1.07 | 93 | 1011.9 |
| 20260505085720 | 6 | 331 | 9.7 | 11.3 | 0.00 | 1.07 | 1.07 | 93 | 1012.0 |
| 20260505085218 | 6 | 0 | 0.0 | 3.2 | 0.00 | 1.07 | 1.07 | 92 | 1011.6 |
| 20260505084715 | 6 | 26 | 9.7 | 11.3 | 0.00 | 1.07 | 1.07 | 92 | 1011.9 |
| 20260505084214 | 6 | 33 | 1.6 | 3.2 | 0.00 | 1.07 | 1.07 | 92 | 1011.8 |
| 20260505083711 | 6 | 33 | 6.4 | 11.3 | 0.00 | 1.07 | 1.07 | 92 | 1011.4 |
| 20260505083207 | 6 | 31 | 6.4 | 11.3 | 0.00 | 1.07 | 1.07 | 92 | 1011.7 |
| 20260505082703 | 6 | 59 | 8.0 | 11.3 | 0.00 | 1.07 | 1.07 | 93 | 1011.8 |
| 20260505082201 | 6 | 49 | 9.7 | 16.1 | 0.00 | 1.07 | 1.07 | 93 | 1011.7 |
| 20260505081656 | 6 | 47 | 12.9 | 19.3 | 0.00 | 1.07 | 1.07 | 93 | 1011.8 |
| 20260505081154 | 6 | 37 | 8.0 | 11.3 | 0.00 | 1.07 | 1.07 | 93 | 1011.6 |
| 20260505080651 | 6 | 52 | 17.7 | 24.1 | 0.00 | 1.07 | 1.07 | 93 | 1011.6 |
| 20260505080147 | 6 | 66 | 6.4 | 11.3 | 0.00 | 1.07 | 1.07 | 93 | 1011.8 |
| 20260505075643 | 6 | 42 | 6.4 | 14.5 | 0.00 | 1.07 | 1.07 | 93 | 1011.6 |
| 20260505075140 | 6 | 51 | 17.7 | 24.1 | 0.18 | 1.07 | 1.07 | 94 | 1011.7 |
| 20260505074637 | 6 | 65 | 17.7 | 22.5 | 0.30 | 1.07 | 1.07 | 94 | 1011.7 |
| 20260505074134 | 6 | 57 | 8.0 | 8.0 | 0.30 | 1.04 | 1.04 | 94 | 1011.7 |
| 20260505073632 | 6 | 102 | 9.7 | 11.3 | 0.48 | 1.02 | 1.02 | 94 | 1011.7 |
| 20260505073129 | 6 | 39 | 11.3 | 14.5 | 0.71 | 0.99 | 0.99 | 94 | 1011.8 |
| 20260505072533 | 7 | 39 | 9.7 | 11.3 | 0.79 | 0.84 | 0.84 | 93 | 1011.8 |
| 20260505072029 | 7 | 39 | 9.7 | 11.3 | 0.79 | 0.84 | 0.84 | 93 | 1011.8 |
| 20260505071525 | 7 | 63 | 8.0 | 11.3 | 0.89 | 0.81 | 0.81 | 93 | 1011.7 |
| 20260505071023 | 7 | 42 | 4.8 | 4.8 | 1.85 | 0.74 | 0.74 | 94 | 1011.3 |
| 20260505070520 | 8 | 67 | 16.1 | 19.3 | 1.80 | 0.66 | 0.66 | 94 | 1011.4 |
| 20260505070016 | 8 | 316 | 1.6 | 3.2 | 0.79 | 0.46 | 0.46 | 94 | 1011.4 |
| 20260505065512 | 8 | 315 | 0.0 | 0.0 | 0.61 | 0.36 | 0.36 | 94 | 1011.4 |
| 20260505065009 | 8 | 315 | 1.6 | 3.2 | 0.71 | 0.33 | 0.33 | 93 | 1011.1 |
| 20260505064506 | 9 | 287 | 1.6 | 3.2 | 0.66 | 0.25 | 0.25 | 93 | 1011.4 |
| 20260505064004 | 9 | 277 | 8.0 | 8.0 | 0.66 | 0.20 | 0.20 | 92 | 1011.2 |
| 20260505063501 | 9 | 264 | 6.4 | 8.0 | 0.30 | 0.15 | 0.15 | 92 | 1011.2 |
| 20260505062957 | 9 | 290 | 4.8 | 8.0 | 0.43 | 0.10 | 0.10 | 91 | 1011.1 |
| 20260505062454 | 10 | 286 | 4.8 | 4.8 | 0.61 | 0.10 | 0.10 | 91 | 1010.7 |
| 20260505061951 | 10 | 290 | 3.2 | 3.2 | 0.18 | 0.03 | 0.03 | 90 | 1010.9 |
| 20260505061449 | 10 | 312 | 1.6 | 3.2 | 0.00 | 0.00 | 0.00 | 90 | 1011.0 |
| 20260505060946 | 9 | 305 | 0.0 | 0.0 | 0.00 | 0.00 | 0.00 | 90 | 1011.0 |
| 20260505060443 | 9 | 183 | 0.0 | 0.0 | 0.00 | 0.00 | 0.00 | 90 | 1010.7 |
| 20260505055940 | 10 | 195 | 0.0 | 3.2 | 0.00 | 0.13 | 0.13 | 90 | 1010.9 |
| 20260505055435 | 10 | 126 | 1.6 | 3.2 | 0.00 | 0.13 | 0.13 | 90 | 1010.7 |
| 20260505054932 | 9 | 128 | 1.6 | 3.2 | 0.00 | 0.13 | 0.13 | 90 | 1010.6 |
| 20260505054430 | 10 | 133 | 3.2 | 4.8 | 0.00 | 0.13 | 0.13 | 90 | 1010.5 |
| 20260505053928 | 10 | 130 | 3.2 | 4.8 | 0.00 | 0.13 | 0.13 | 90 | 1010.4 |
| 20260505053425 | 10 | 175 | 0.0 | 3.2 | 0.00 | 0.13 | 0.13 | 90 | 1010.7 |
| 20260505052921 | 10 | 192 | 3.2 | 3.2 | 0.00 | 0.13 | 0.13 | 90 | 1010.7 |
| 20260505052418 | 10 | 155 | 3.2 | 3.2 | 0.00 | 0.13 | 0.13 | 89 | 1010.5 |
| 20260505051916 | 10 | 143 | 3.2 | 4.8 | 0.00 | 0.13 | 0.13 | 89 | 1010.4 |
| 20260505051413 | 10 | 164 | 3.2 | 3.2 | 0.00 | 0.13 | 0.13 | 88 | 1010.6 |
| 20260505050911 | 10 | 209 | 0.0 | 0.0 | 0.00 | 0.13 | 0.13 | 88 | 1010.9 |
| 20260505050409 | 9 | 214 | 6.4 | 8.0 | 0.00 | 0.13 | 0.13 | 89 | 1010.6 |
| 20260505041336 | 10 | 233 | 11.3 | 14.5 | 0.00 | 0.13 | 0.13 | 88 | 1010.3 |
| 20260505040833 | 10 | 221 | 9.7 | 11.3 | 0.00 | 0.13 | 0.13 | 88 | 1010.3 |
| 20260505040331 | 10 | 198 | 8.0 | 11.3 | 0.00 | 0.13 | 0.13 | 88 | 1010.2 |
| 20260505035827 | 10 | 180 | 4.8 | 4.8 | 0.00 | 0.13 | 0.13 | 87 | 1010.2 |
| 20260505035323 | 10 | 148 | 6.4 | 8.0 | 0.00 | 0.13 | 0.13 | 86 | 1010.2 |
| 20260505034821 | 10 | 140 | 4.8 | 4.8 | 0.00 | 0.13 | 0.13 | 86 | 1010.4 |
| 20260505034317 | 10 | 152 | 6.4 | 8.0 | 0.00 | 0.13 | 0.13 | 86 | 1010.3 |
| 20260505033814 | 10 | 162 | 4.8 | 4.8 | 0.00 | 0.13 | 0.13 | 87 | 1010.2 |
| 20260505033311 | 10 | 133 | 1.6 | 3.2 | 0.00 | 0.13 | 0.13 | 86 | 1010.3 |
| 20260505032810 | 11 | 201 | 3.2 | 4.8 | 0.00 | 0.13 | 0.13 | 86 | 1010.3 |
| 20260505032305 | 11 | 227 | 3.2 | 4.8 | 0.00 | 0.13 | 0.13 | 86 | 1010.1 |
| 20260505031803 | 11 | 238 | 4.8 | 4.8 | 0.00 | 0.13 | 0.13 | 86 | 1010.4 |
| 20260505031259 | 11 | 249 | 8.0 | 8.0 | 0.00 | 0.13 | 0.13 | 84 | 1010.1 |
| 20260505030756 | 10 | 310 | 6.4 | 8.0 | 0.00 | 0.13 | 0.13 | 87 | 1009.7 |
| 20260505030252 | 10 | 34 | 0.0 | 3.2 | 0.00 | 0.13 | 0.13 | 88 | 1009.8 |
| 20260505025748 | 11 | 42 | 1.6 | 3.2 | 0.00 | 0.13 | 0.13 | 88 | 1009.5 |
| 20260505025246 | 10 | 51 | 0.0 | 0.0 | 0.00 | 0.13 | 0.13 | 87 | 1009.1 |
| 20260505024744 | 10 | 52 | 3.2 | 3.2 | 0.00 | 0.13 | 0.13 | 87 | 1009.3 |
| 20260505024241 | 10 | 57 | 0.0 | 3.2 | 0.00 | 0.13 | 0.13 | 88 | 1009.4 |
| 20260505023738 | 10 | 64 | 0.0 | 0.0 | 0.00 | 0.13 | 0.13 | 88 | 1009.3 |
| 20260505023235 | 10 | 65 | 0.0 | 0.0 | 0.00 | 0.13 | 0.13 | 88 | 1009.0 |
| 20260505022733 | 10 | 80 | 0.0 | 0.0 | 0.00 | 0.13 | 0.13 | 87 | 1009.4 |
| 20260505022230 | 10 | 161 | 0.0 | 0.0 | 0.00 | 0.13 | 0.13 | 85 | 1008.9 |
| 20260505021726 | 10 | 180 | 1.6 | 3.2 | 0.00 | 0.13 | 0.13 | 85 | 1009.4 |
| 20260505021223 | 11 | 233 | 1.6 | 3.2 | 0.00 | 0.13 | 0.13 | 86 | 1009.5 |
| 20260505020719 | 11 | 234 | 1.6 | 3.2 | 0.00 | 0.13 | 0.13 | 86 | 1009.4 |
| 20260505020214 | 11 | 291 | 4.8 | 4.8 | 0.00 | 0.13 | 0.13 | 86 | 1009.6 |
| 20260505015712 | 11 | 296 | 4.8 | 4.8 | 0.13 | 0.13 | 0.13 | 85 | 1009.5 |
| 20260505015209 | 11 | 295 | 0.0 | 0.0 | 0.30 | 0.13 | 0.13 | 84 | 1009.0 |
| 20260505014706 | 11 | 282 | 4.8 | 4.8 | 0.30 | 0.10 | 0.10 | 82 | 1009.1 |
| 20260505014203 | 12 | 316 | 8.0 | 11.3 | 0.13 | 0.08 | 0.08 | 78 | 1009.4 |
| 20260505013700 | 12 | 283 | 11.3 | 19.3 | 0.00 | 0.05 | 0.05 | 74 | 1009.3 |
| 20260505013157 | 12 | 277 | 11.3 | 14.5 | 0.00 | 0.05 | 0.05 | 69 | 1009.3 |
| 20260505012655 | 13 | 312 | 3.2 | 3.2 | 0.00 | 0.05 | 0.05 | 66 | 1009.3 |
| 20260505012147 | 13 | 291 | 6.4 | 14.5 | 0.00 | 0.05 | 0.05 | 62 | 1009.3 |
| 20260505011642 | 13 | 280 | 9.7 | 14.5 | 0.00 | 0.05 | 0.05 | 61 | 1009.0 |
| 20260505011139 | 13 | 276 | 16.1 | 19.3 | 0.00 | 0.05 | 0.05 | 61 | 1009.0 |
| 20260505010639 | 13 | 315 | 9.7 | 11.3 | 0.00 | 0.05 | 0.05 | 60 | 1009.0 |
| 20260505010136 | 14 | 335 | 11.3 | 19.3 | 0.00 | 0.05 | 0.05 | 57 | 1008.8 |
| 20260505005632 | 14 | 307 | 8.0 | 19.3 | 0.00 | 0.05 | 0.05 | 59 | 1008.4 |
| 20260505005129 | 14 | 325 | 4.8 | 4.8 | 0.00 | 0.05 | 0.05 | 61 | 1008.2 |
| 20260505004627 | 14 | 328 | 1.6 | 3.2 | 0.00 | 0.05 | 0.05 | 61 | 1008.4 |
| 20260505004123 | 14 | 307 | 1.6 | 4.8 | 0.00 | 0.05 | 0.05 | 60 | 1008.2 |
| 20260505003621 | 14 | 295 | 3.2 | 4.8 | 0.00 | 0.05 | 0.05 | 58 | 1008.4 |
| 20260505003118 | 14 | 250 | 3.2 | 3.2 | 0.00 | 0.05 | 0.05 | 60 | 1008.4 |
| 20260505002614 | 14 | 280 | 0.0 | 3.2 | 0.00 | 0.05 | 0.05 | 63 | 1008.4 |
| 20260505002112 | 13 | 60 | 0.0 | 0.0 | 0.00 | 0.05 | 0.05 | 67 | 1008.4 |
| 20260505001609 | 13 | 74 | 0.0 | 0.0 | 0.00 | 0.05 | 0.05 | 65 | 1008.6 |
| 20260505001107 | 13 | 67 | 0.0 | 0.0 | 0.00 | 0.05 | 0.05 | 68 | 1008.3 |
| 20260505000603 | 13 | 117 | 0.0 | 0.0 | 0.00 | 0.05 | 0.05 | 70 | 1008.6 |
| 20260504235557 | 13 | 134 | 3.2 | 4.8 | 0.00 | 0.05 | 0.05 | 65 | 1008.7 |
| 20260504235054 | 12 | 45 | 1.6 | 4.8 | 0.18 | 0.05 | 0.05 | 61 | 1008.6 |
| 20260504234551 | 12 | 151 | 8.0 | 16.1 | 0.36 | 0.05 | 0.05 | 74 | 1008.7 |
| 20260504234049 | 12 | 167 | 4.8 | 4.8 | 0.18 | 0.03 | 0.03 | 65 | 1008.9 |
| 20260504233544 | 14 | 179 | 16.1 | 16.1 | 0.00 | 0.00 | 0.00 | 67 | 1008.7 |
| 20260504233041 | 15 | 233 | 20.9 | 24.1 | 0.00 | 0.00 | 0.00 | 54 | 1008.9 |
| 20260504232538 | 15 | 166 | 12.9 | 16.1 | 0.00 | 0.00 | 0.00 | 51 | 1008.3 |
| 20260504232036 | 15 | 175 | 25.7 | 38.6 | 0.00 | 0.00 | 0.00 | 50 | 1008.2 |
| 20260504231532 | 17 | 211 | 27.4 | 33.8 | 0.00 | 0.00 | 0.00 | 40 | 1007.8 |
| 20260504231028 | 17 | 263 | 8.0 | 14.5 | 0.00 | 0.00 | 0.00 | 37 | 1007.4 |
| 20260504230524 | 18 | 255 | 0.0 | 0.0 | 0.00 | 0.00 | 0.00 | 36 | 1007.4 |
| 20260504230023 | 18 | 276 | 0.0 | 0.0 | 0.00 | 0.00 | 0.00 | 36 | 1007.1 |
| 20260504225520 | 18 | 282 | 4.8 | 8.0 | 0.00 | 0.00 | 0.00 | 36 | 1007.1 |
| 20260504225017 | 18 | 340 | 12.9 | 14.5 | 0.00 | 0.00 | 0.00 | 35 | 1007.0 |
| 20260504224514 | 18 | 348 | 19.3 | 22.5 | 0.00 | 0.00 | 0.00 | 35 | 1007.0 |
| 20260504224011 | 18 | 294 | 8.0 | 8.0 | 0.00 | 0.00 | 0.00 | 35 | 1007.2 |
| 20260504223507 | 18 | 341 | 8.0 | 14.5 | 0.00 | 0.00 | 0.00 | 34 | 1007.1 |
| 20260504223003 | 18 | 297 | 9.7 | 14.5 | 0.00 | 0.00 | 0.00 | 35 | 1007.1 |
| 20260504222500 | 18 | 305 | 11.3 | 16.1 | 0.00 | 0.00 | 0.00 | 34 | 1007.1 |
| 20260504221958 | 18 | 323 | 11.3 | 14.5 | 0.00 | 0.00 | 0.00 | 35 | 1006.6 |
| 20260504221455 | 18 | 316 | 14.5 | 19.3 | 0.00 | 0.00 | 0.00 | 34 | 1007.0 |
| 20260504220952 | 18 | 303 | 0.0 | 0.0 | 0.00 | 0.00 | 0.00 | 35 | 1006.8 |
| 20260504220448 | 18 | 312 | 9.7 | 16.1 | 0.00 | 0.00 | 0.00 | 35 | 1007.2 |
| 20260504215945 | 18 | 265 | 16.1 | 19.3 | 0.00 | 0.00 | 0.00 | 36 | 1007.5 |
| 20260504215442 | 18 | 291 | 11.3 | 11.3 | 0.00 | 0.00 | 0.00 | 36 | 1007.3 |
| 20260504214938 | 18 | 297 | 12.9 | 19.3 | 0.00 | 0.00 | 0.00 | 36 | 1007.5 |
| 20260504214435 | 18 | 271 | 19.3 | 27.4 | 0.00 | 0.00 | 0.00 | 36 | 1007.6 |
| 20260504213932 | 18 | 313 | 19.3 | 27.4 | 0.00 | 0.00 | 0.00 | 36 | 1007.5 |
| 20260504213427 | 18 | 275 | 19.3 | 24.1 | 0.00 | 0.00 | 0.00 | 36 | 1007.9 |
| 20260504212925 | 18 | 312 | 22.5 | 27.4 | 0.00 | 0.00 | 0.00 | 35 | 1007.5 |
| 20260504212421 | 18 | 321 | 19.3 | 33.8 | 0.00 | 0.00 | 0.00 | 33 | 1007.8 |
| 20260504211919 | 18 | 309 | 27.4 | 33.8 | 0.00 | 0.00 | 0.00 | 33 | 1007.6 |
| 20260504211415 | 18 | 295 | 16.1 | 22.5 | 0.00 | 0.00 | 0.00 | 32 | 1007.8 |
| 20260504210912 | 18 | 281 | 12.9 | 19.3 | 0.00 | 0.00 | 0.00 | 32 | 1007.6 |
| 20260504210409 | 19 | 3 | 17.7 | 22.5 | 0.00 | 0.00 | 0.00 | 31 | 1007.4 |
| 20260504205906 | 19 | 211 | 25.7 | 43.5 | 0.00 | 0.00 | 0.00 | 31 | 1007.3 |
| 20260504205404 | 19 | 295 | 6.4 | 14.5 | 0.00 | 0.00 | 0.00 | 32 | 1007.3 |
| 20260504204902 | 20 | 271 | 27.4 | 35.4 | 0.00 | 0.00 | 0.00 | 32 | 1007.2 |
| 20260504204400 | 20 | 288 | 32.2 | 41.8 | 0.00 | 0.00 | 0.00 | 31 | 1007.1 |
| 20260504203859 | 21 | 331 | 29.0 | 41.8 | 0.00 | 0.00 | 0.00 | 30 | 1006.8 |
| 20260504203356 | 20 | 328 | 38.6 | 57.9 | 0.00 | 0.00 | 0.00 | 29 | 1007.1 |
| 20260504202852 | 20 | 311 | 45.1 | 57.9 | 0.00 | 0.00 | 0.00 | 29 | 1007.0 |
| 20260504202349 | 21 | 309 | 33.8 | 51.5 | 0.00 | 0.00 | 0.00 | 29 | 1006.6 |
| 20260504201845 | 21 | 339 | 30.6 | 43.5 | 0.00 | 0.00 | 0.00 | 29 | 1007.0 |
| 20260504201343 | 21 | 291 | 41.8 | 57.9 | 0.00 | 0.00 | 0.00 | 28 | 1007.1 |
| 20260504200840 | 21 | 309 | 27.4 | 38.6 | 0.00 | 0.00 | 0.00 | 27 | 1006.8 |
| 20260504200337 | 20 | 270 | 14.5 | 19.3 | 0.00 | 0.00 | 0.00 | 28 | 1006.7 |
| 20260504195833 | 20 | 345 | 27.4 | 43.5 | 0.00 | 0.00 | 0.00 | 29 | 1007.0 |
| 20260504195329 | 20 | 29 | 40.2 | 51.5 | 0.00 | 0.00 | 0.00 | 29 | 1006.8 |
| 20260504194826 | 21 | 309 | 37.0 | 46.7 | 0.00 | 0.00 | 0.00 | 27 | 1006.8 |
| 20260504194322 | 22 | 280 | 19.3 | 30.6 | 0.00 | 0.00 | 0.00 | 24 | 1006.5 |
| 20260504193818 | 21 | 323 | 27.4 | 43.5 | 0.00 | 0.00 | 0.00 | 24 | 1006.4 |
| 20260504193315 | 22 | 329 | 25.7 | 35.4 | 0.00 | 0.00 | 0.00 | 24 | 1006.5 |
| 20260504192814 | 22 | 282 | 11.3 | 16.1 | 0.00 | 0.00 | 0.00 | 24 | 1006.4 |
| 20260504192312 | 22 | 283 | 8.0 | 14.5 | 0.00 | 0.00 | 0.00 | 23 | 1006.4 |
| 20260504191810 | 22 | 307 | 30.6 | 43.5 | 0.00 | 0.00 | 0.00 | 24 | 1006.0 |
| 20260504191307 | 22 | 257 | 30.6 | 35.4 | 0.00 | 0.00 | 0.00 | 25 | 1006.2 |
| 20260504190802 | 22 | 262 | 24.1 | 33.8 | 0.00 | 0.00 | 0.00 | 24 | 1006.2 |
| 20260504190259 | 22 | 292 | 30.6 | 43.5 | 0.00 | 0.00 | 0.00 | 24 | 1006.3 |
| 20260504185755 | 23 | 256 | 27.4 | 33.8 | 0.00 | 0.00 | 0.00 | 24 | 1006.3 |
| 20260504185252 | 23 | 272 | 16.1 | 22.5 | 0.00 | 0.00 | 0.00 | 23 | 1006.3 |
| 20260504184748 | 22 | 235 | 22.5 | 27.4 | 0.00 | 0.00 | 0.00 | 24 | 1006.0 |
| 20260504184244 | 22 | 236 | 25.7 | 33.8 | 0.00 | 0.00 | 0.00 | 24 | 1005.9 |
| 20260504183740 | 22 | 244 | 22.5 | 27.4 | 0.00 | 0.00 | 0.00 | 24 | 1006.3 |
| 20260504183237 | 22 | 243 | 27.4 | 30.6 | 0.00 | 0.00 | 0.00 | 25 | 1006.5 |
| 20260504182735 | 22 | 231 | 25.7 | 41.8 | 0.00 | 0.00 | 0.00 | 24 | 1006.5 |
| 20260504182232 | 22 | 242 | 25.7 | 33.8 | 0.00 | 0.00 | 0.00 | 24 | 1006.3 |
| 20260504181730 | 22 | 256 | 27.4 | 35.4 | 0.00 | 0.00 | 0.00 | 24 | 1006.5 |
| 20260504181227 | 22 | 282 | 24.1 | 30.6 | 0.00 | 0.00 | 0.00 | 25 | 1006.5 |
| 20260504180726 | 22 | 179 | 4.8 | 8.0 | 0.00 | 0.00 | 0.00 | 24 | 1006.5 |
| 20260504180224 | 21 | 257 | 17.7 | 22.5 | 0.00 | 0.00 | 0.00 | 25 | 1006.6 |
| 20260504175722 | 22 | 234 | 22.5 | 30.6 | 0.00 | 0.00 | 0.00 | 25 | 1006.6 |
| 20260504175218 | 22 | 236 | 19.3 | 24.1 | 0.00 | 0.00 | 0.00 | 24 | 1006.7 |
| 20260504174716 | 22 | 209 | 29.0 | 38.6 | 0.00 | 0.00 | 0.00 | 24 | 1006.7 |
| 20260504174214 | 22 | 242 | 20.9 | 33.8 | 0.00 | 0.00 | 0.00 | 24 | 1006.7 |
| 20260504173710 | 22 | 244 | 32.2 | 38.6 | 0.00 | 0.00 | 0.00 | 24 | 1007.1 |
| 20260504173207 | 21 | 252 | 29.0 | 38.6 | 0.00 | 0.00 | 0.00 | 24 | 1006.7 |
| 20260504172704 | 22 | 214 | 33.8 | 38.6 | 0.00 | 0.00 | 0.00 | 24 | 1006.8 |
| 20260504172200 | 21 | 236 | 33.8 | 38.6 | 0.00 | 0.00 | 0.00 | 24 | 1007.2 |
| 20260504171657 | 21 | 264 | 25.7 | 30.6 | 0.00 | 0.00 | 0.00 | 24 | 1007.0 |
| 20260504171154 | 21 | 240 | 24.1 | 27.4 | 0.00 | 0.00 | 0.00 | 25 | 1007.1 |
| 20260504170650 | 21 | 256 | 30.6 | 38.6 | 0.00 | 0.00 | 0.00 | 24 | 1007.1 |
| 20260504170148 | 21 | 216 | 29.0 | 33.8 | 0.00 | 0.00 | 0.00 | 24 | 1007.0 |
| 20260504151033 | 16 | 218 | 12.9 | 16.1 | 0.00 | 0.00 | 0.00 | 33 | 1008.0 |
| 20260504150531 | 16 | 189 | 8.0 | 11.3 | 0.00 | 0.00 | 0.00 | 34 | 1007.8 |
| 20260504140957 | 10 | 231 | 4.8 | 4.8 | 0.00 | 0.00 | 0.00 | 42 | 1008.1 |
| 20260504140453 | 10 | 211 | 4.8 | 4.8 | 0.00 | 0.00 | 0.00 | 43 | 1008.7 |
| 20260504130418 | 6 | 265 | 4.8 | 4.8 | 0.00 | 0.00 | 0.00 | 51 | 1008.4 |